sensor_id;sensor_type;location;lat;lon;timestamp;temperature;humidity
8707;DHT22;4390;49.302;9.306;2023-04-01T00:01:47;8.70;96.20
8707;DHT22;4390;49.302;9.306;2023-04-01T00:04:14;8.60;96.10
8707;DHT22;4390;49.302;9.306;2023-04-01T00:06:42;8.40;96.20
8707;DHT22;4390;49.302;9.306;2023-04-01T00:09:09;8.30;96.50
8707;DHT22;4390;49.302;9.306;2023-04-01T00:11:35;8.30;96.40
8707;DHT22;4390;49.302;9.306;2023-04-01T00:14:02;8.30;96.50
8707;DHT22;4390;49.302;9.306;2023-04-01T00:16:29;8.20;96.90
8707;DHT22;4390;49.302;9.306;2023-04-01T00:18:56;8.30;96.60
8707;DHT22;4390;49.302;9.306;2023-04-01T00:21:23;8.40;96.50
8707;DHT22;4390;49.302;9.306;2023-04-01T00:23:50;8.40;96.20
8707;DHT22;4390;49.302;9.306;2023-04-01T00:26:17;8.40;96.20
8707;DHT22;4390;49.302;9.306;2023-04-01T00:28:47;8.20;96.10
8707;DHT22;4390;49.302;9.306;2023-04-01T00:31:14;8.20;96.50
8707;DHT22;4390;49.302;9.306;2023-04-01T00:33:41;8.10;96.80
8707;DHT22;4390;49.302;9.306;2023-04-01T00:36:17;8.20;96.70
8707;DHT22;4390;49.302;9.306;2023-04-01T00:38:44;8.10;96.80
8707;DHT22;4390;49.302;9.306;2023-04-01T00:41:13;8.40;96.50
8707;DHT22;4390;49.302;9.306;2023-04-01T00:43:47;8.60;95.90
8707;DHT22;4390;49.302;9.306;2023-04-01T00:46:14;8.30;96.00
8707;DHT22;4390;49.302;9.306;2023-04-01T00:48:48;8.30;96.30
8707;DHT22;4390;49.302;9.306;2023-04-01T00:51:22;8.40;96.10
8707;DHT22;4390;49.302;9.306;2023-04-01T00:53:53;8.50;96.00
8707;DHT22;4390;49.302;9.306;2023-04-01T00:56:24;8.40;96.10
8707;DHT22;4390;49.302;9.306;2023-04-01T00:59:02;8.40;96.20
8707;DHT22;4390;49.302;9.306;2023-04-01T01:01:31;8.40;96.10
8707;DHT22;4390;49.302;9.306;2023-04-01T01:03:58;8.20;96.50
8707;DHT22;4390;49.302;9.306;2023-04-01T01:09:28;8.20;96.90
8707;DHT22;4390;49.302;9.306;2023-04-01T01:12:11;8.20;97.10
8707;DHT22;4390;49.302;9.306;2023-04-01T01:14:56;8.20;97.20
8707;DHT22;4390;49.302;9.306;2023-04-01T01:21:04;8.30;97.10
8707;DHT22;4390;49.302;9.306;2023-04-01T01:32:38;8.30;96.90
8707;DHT22;4390;49.302;9.306;2023-04-01T01:35:35;8.30;97.30
8707;DHT22;4390;49.302;9.306;2023-04-01T01:38:14;8.30;97.20
8707;DHT22;4390;49.302;9.306;2023-04-01T01:40:50;8.50;97.00
8707;DHT22;4390;49.302;9.306;2023-04-01T01:43:36;8.60;96.60
8707;DHT22;4390;49.302;9.306;2023-04-01T01:46:11;8.60;96.50
8707;DHT22;4390;49.302;9.306;2023-04-01T01:48:40;8.40;96.50
8707;DHT22;4390;49.302;9.306;2023-04-01T01:51:08;8.20;97.10
8707;DHT22;4390;49.302;9.306;2023-04-01T01:53:35;8.10;97.30
8707;DHT22;4390;49.302;9.306;2023-04-01T01:56:03;8.20;97.20
8707;DHT22;4390;49.302;9.306;2023-04-01T01:58:42;8.10;97.30
8707;DHT22;4390;49.302;9.306;2023-04-01T02:01:28;8.00;97.10
8707;DHT22;4390;49.302;9.306;2023-04-01T02:04:04;8.00;97.50
8707;DHT22;4390;49.302;9.306;2023-04-01T02:06:34;8.10;97.50
8707;DHT22;4390;49.302;9.306;2023-04-01T02:09:05;8.30;97.00
8707;DHT22;4390;49.302;9.306;2023-04-01T02:11:40;8.40;96.40
8707;DHT22;4390;49.302;9.306;2023-04-01T02:14:17;8.50;96.10
8707;DHT22;4390;49.302;9.306;2023-04-01T02:19:21;8.50;96.00
8707;DHT22;4390;49.302;9.306;2023-04-01T02:21:55;8.50;95.70
8707;DHT22;4390;49.302;9.306;2023-04-01T02:24:25;8.30;95.80
8707;DHT22;4390;49.302;9.306;2023-04-01T02:26:53;8.30;96.00
8707;DHT22;4390;49.302;9.306;2023-04-01T02:29:22;8.30;96.00
8707;DHT22;4390;49.302;9.306;2023-04-01T02:31:50;8.40;95.90
8707;DHT22;4390;49.302;9.306;2023-04-01T02:34:18;8.50;95.40
8707;DHT22;4390;49.302;9.306;2023-04-01T02:36:47;8.40;95.40
8707;DHT22;4390;49.302;9.306;2023-04-01T02:39:14;8.30;95.80
8707;DHT22;4390;49.302;9.306;2023-04-01T02:41:43;8.10;96.30
8707;DHT22;4390;49.302;9.306;2023-04-01T02:44:12;7.90;97.00
8707;DHT22;4390;49.302;9.306;2023-04-01T02:46:39;8.10;96.90
8707;DHT22;4390;49.302;9.306;2023-04-01T02:49:07;8.10;96.80
8707;DHT22;4390;49.302;9.306;2023-04-01T02:51:34;8.20;96.60
8707;DHT22;4390;49.302;9.306;2023-04-01T02:54:01;8.00;96.80
8707;DHT22;4390;49.302;9.306;2023-04-01T02:56:28;7.90;97.20
8707;DHT22;4390;49.302;9.306;2023-04-01T02:58:55;8.10;97.00
8707;DHT22;4390;49.302;9.306;2023-04-01T03:01:22;8.20;96.50
8707;DHT22;4390;49.302;9.306;2023-04-01T03:03:49;8.20;96.60
8707;DHT22;4390;49.302;9.306;2023-04-01T03:06:17;8.10;96.60
8707;DHT22;4390;49.302;9.306;2023-04-01T03:08:44;8.20;96.50
8707;DHT22;4390;49.302;9.306;2023-04-01T03:11:12;8.30;95.80
8707;DHT22;4390;49.302;9.306;2023-04-01T03:13:39;8.10;96.00
8707;DHT22;4390;49.302;9.306;2023-04-01T03:16:06;8.10;96.40
8707;DHT22;4390;49.302;9.306;2023-04-01T03:18:34;8.10;96.60
8707;DHT22;4390;49.302;9.306;2023-04-01T03:21:14;8.00;96.50
8707;DHT22;4390;49.302;9.306;2023-04-01T03:23:42;8.20;96.30
8707;DHT22;4390;49.302;9.306;2023-04-01T03:26:08;8.20;96.10
8707;DHT22;4390;49.302;9.306;2023-04-01T03:28:35;8.30;96.00
8707;DHT22;4390;49.302;9.306;2023-04-01T03:31:02;8.60;95.40
8707;DHT22;4390;49.302;9.306;2023-04-01T03:33:36;8.80;94.50
8707;DHT22;4390;49.302;9.306;2023-04-01T03:36:03;8.60;94.60
8707;DHT22;4390;49.302;9.306;2023-04-01T03:38:34;8.50;95.20
8707;DHT22;4390;49.302;9.306;2023-04-01T03:41:01;8.50;95.00
8707;DHT22;4390;49.302;9.306;2023-04-01T03:43:28;8.60;94.40
8707;DHT22;4390;49.302;9.306;2023-04-01T03:45:55;8.60;94.30
8707;DHT22;4390;49.302;9.306;2023-04-01T03:48:25;8.50;94.60
8707;DHT22;4390;49.302;9.306;2023-04-01T03:50:52;8.30;94.40
8707;DHT22;4390;49.302;9.306;2023-04-01T03:53:19;8.10;94.80
8707;DHT22;4390;49.302;9.306;2023-04-01T03:55:46;8.00;95.40
8707;DHT22;4390;49.302;9.306;2023-04-01T03:58:14;8.10;95.00
8707;DHT22;4390;49.302;9.306;2023-04-01T04:00:41;8.30;94.50
8707;DHT22;4390;49.302;9.306;2023-04-01T04:03:09;8.10;95.00
8707;DHT22;4390;49.302;9.306;2023-04-01T04:05:36;8.10;95.00
8707;DHT22;4390;49.302;9.306;2023-04-01T04:08:03;8.20;94.70
8707;DHT22;4390;49.302;9.306;2023-04-01T04:10:30;8.20;94.80
8707;DHT22;4390;49.302;9.306;2023-04-01T04:12:57;8.20;95.00
8707;DHT22;4390;49.302;9.306;2023-04-01T04:15:27;8.10;94.70
8707;DHT22;4390;49.302;9.306;2023-04-01T04:17:54;8.10;95.00
8707;DHT22;4390;49.302;9.306;2023-04-01T04:20:21;8.10;95.00
8707;DHT22;4390;49.302;9.306;2023-04-01T04:22:47;8.20;95.20
8707;DHT22;4390;49.302;9.306;2023-04-01T04:25:14;8.20;95.00
8707;DHT22;4390;49.302;9.306;2023-04-01T04:27:41;8.20;95.00
8707;DHT22;4390;49.302;9.306;2023-04-01T04:30:11;8.20;95.30
8707;DHT22;4390;49.302;9.306;2023-04-01T04:32:38;8.10;95.60
8707;DHT22;4390;49.302;9.306;2023-04-01T04:35:05;8.10;96.00
8707;DHT22;4390;49.302;9.306;2023-04-01T04:37:33;8.00;96.00
8707;DHT22;4390;49.302;9.306;2023-04-01T04:40:00;7.90;96.40
8707;DHT22;4390;49.302;9.306;2023-04-01T04:42:28;8.10;96.50
8707;DHT22;4390;49.302;9.306;2023-04-01T04:45:00;8.20;96.20
8707;DHT22;4390;49.302;9.306;2023-04-01T04:47:27;8.10;96.30
8707;DHT22;4390;49.302;9.306;2023-04-01T04:49:54;8.20;96.60
8707;DHT22;4390;49.302;9.306;2023-04-01T04:52:21;8.20;96.50
8707;DHT22;4390;49.302;9.306;2023-04-01T04:54:47;8.20;96.30
8707;DHT22;4390;49.302;9.306;2023-04-01T04:57:14;8.20;96.60
8707;DHT22;4390;49.302;9.306;2023-04-01T04:59:48;8.10;96.80
8707;DHT22;4390;49.302;9.306;2023-04-01T05:02:23;8.20;96.40
8707;DHT22;4390;49.302;9.306;2023-04-01T05:04:50;8.50;96.10
8707;DHT22;4390;49.302;9.306;2023-04-01T05:07:17;8.50;95.60
8707;DHT22;4390;49.302;9.306;2023-04-01T05:09:43;8.50;95.30
8707;DHT22;4390;49.302;9.306;2023-04-01T05:12:12;8.60;95.20
8707;DHT22;4390;49.302;9.306;2023-04-01T05:15:09;8.60;94.80
8707;DHT22;4390;49.302;9.306;2023-04-01T05:17:37;8.50;94.80
8707;DHT22;4390;49.302;9.306;2023-04-01T05:20:04;8.50;94.90
8707;DHT22;4390;49.302;9.306;2023-04-01T05:22:31;8.40;95.00
8707;DHT22;4390;49.302;9.306;2023-04-01T05:24:58;8.50;94.60
8707;DHT22;4390;49.302;9.306;2023-04-01T05:27:25;8.60;94.40
8707;DHT22;4390;49.302;9.306;2023-04-01T05:29:51;8.60;94.10
8707;DHT22;4390;49.302;9.306;2023-04-01T05:32:40;8.70;93.80
8707;DHT22;4390;49.302;9.306;2023-04-01T05:35:07;8.70;93.60
8707;DHT22;4390;49.302;9.306;2023-04-01T05:37:35;8.80;93.50
8707;DHT22;4390;49.302;9.306;2023-04-01T05:40:03;8.90;93.20
8707;DHT22;4390;49.302;9.306;2023-04-01T05:42:30;8.80;92.90
8707;DHT22;4390;49.302;9.306;2023-04-01T05:44:57;8.70;93.40
8707;DHT22;4390;49.302;9.306;2023-04-01T05:47:42;8.70;93.60
8707;DHT22;4390;49.302;9.306;2023-04-01T05:50:10;8.70;93.40
8707;DHT22;4390;49.302;9.306;2023-04-01T05:52:38;8.70;93.40
8707;DHT22;4390;49.302;9.306;2023-04-01T05:55:05;8.70;93.70
8707;DHT22;4390;49.302;9.306;2023-04-01T05:57:32;8.70;93.50
8707;DHT22;4390;49.302;9.306;2023-04-01T05:59:59;9.00;93.30
8707;DHT22;4390;49.302;9.306;2023-04-01T06:02:26;9.10;92.60
8707;DHT22;4390;49.302;9.306;2023-04-01T06:05:11;8.90;93.20
8707;DHT22;4390;49.302;9.306;2023-04-01T06:07:38;9.10;92.90
8707;DHT22;4390;49.302;9.306;2023-04-01T06:10:17;9.20;92.70
8707;DHT22;4390;49.302;9.306;2023-04-01T06:13:02;9.00;92.60
8707;DHT22;4390;49.302;9.306;2023-04-01T06:15:48;8.90;93.20
8707;DHT22;4390;49.302;9.306;2023-04-01T06:18:39;8.80;93.90
8707;DHT22;4390;49.302;9.306;2023-04-01T06:27:02;8.70;94.30
8707;DHT22;4390;49.302;9.306;2023-04-01T06:29:58;8.90;94.40
8707;DHT22;4390;49.302;9.306;2023-04-01T06:35:14;9.10;93.50
8707;DHT22;4390;49.302;9.306;2023-04-01T06:38:09;8.90;94.10
8707;DHT22;4390;49.302;9.306;2023-04-01T06:41:06;8.50;94.80
8707;DHT22;4390;49.302;9.306;2023-04-01T06:43:59;8.20;96.60
8707;DHT22;4390;49.302;9.306;2023-04-01T06:50:24;8.10;97.30
8707;DHT22;4390;49.302;9.306;2023-04-01T06:53:19;8.00;97.70
8707;DHT22;4390;49.302;9.306;2023-04-01T06:56:02;7.90;98.20
8707;DHT22;4390;49.302;9.306;2023-04-01T06:58:44;7.90;98.30
8707;DHT22;4390;49.302;9.306;2023-04-01T07:01:22;8.00;98.30
8707;DHT22;4390;49.302;9.306;2023-04-01T07:03:58;8.00;98.30
8707;DHT22;4390;49.302;9.306;2023-04-01T07:06:40;7.90;98.30
8707;DHT22;4390;49.302;9.306;2023-04-01T07:09:14;7.90;98.30
8707;DHT22;4390;49.302;9.306;2023-04-01T07:12:36;7.60;98.30
8707;DHT22;4390;49.302;9.306;2023-04-01T07:18:02;8.20;98.30
8707;DHT22;4390;49.302;9.306;2023-04-01T07:20:32;8.20;98.30
8707;DHT22;4390;49.302;9.306;2023-04-01T07:23:04;8.00;98.30
8707;DHT22;4390;49.302;9.306;2023-04-01T07:26:12;7.60;98.30
8707;DHT22;4390;49.302;9.306;2023-04-01T07:28:59;7.60;98.30
8707;DHT22;4390;49.302;9.306;2023-04-01T07:34:28;7.80;98.30
8707;DHT22;4390;49.302;9.306;2023-04-01T07:37:15;7.80;98.30
8707;DHT22;4390;49.302;9.306;2023-04-01T07:40:02;7.80;98.30
8707;DHT22;4390;49.302;9.306;2023-04-01T07:48:41;7.90;98.30
8707;DHT22;4390;49.302;9.306;2023-04-01T07:51:27;8.00;98.30
8707;DHT22;4390;49.302;9.306;2023-04-01T07:56:55;7.50;98.30
8707;DHT22;4390;49.302;9.306;2023-04-01T08:00:07;7.60;98.30
8707;DHT22;4390;49.302;9.306;2023-04-01T08:08:19;7.70;98.30
8707;DHT22;4390;49.302;9.306;2023-04-01T10:21:29;8.00;98.30
8707;DHT22;4390;49.302;9.306;2023-04-01T10:33:17;7.90;98.30
8707;DHT22;4390;49.302;9.306;2023-04-01T10:48:17;7.90;98.30
8707;DHT22;4390;49.302;9.306;2023-04-01T10:51:23;7.70;98.30
8707;DHT22;4390;49.302;9.306;2023-04-01T11:02:45;8.10;98.30
8707;DHT22;4390;49.302;9.306;2023-04-01T11:18:09;8.10;98.30
8707;DHT22;4390;49.302;9.306;2023-04-01T11:23:26;8.10;98.30
8707;DHT22;4390;49.302;9.306;2023-04-01T11:29:57;8.00;98.30
8707;DHT22;4390;49.302;9.306;2023-04-01T11:38:29;7.70;98.30
8707;DHT22;4390;49.302;9.306;2023-04-01T11:41:34;7.90;98.30
8707;DHT22;4390;49.302;9.306;2023-04-01T11:44:27;8.00;98.30
8707;DHT22;4390;49.302;9.306;2023-04-01T11:49:55;8.00;98.30
8707;DHT22;4390;49.302;9.306;2023-04-01T11:52:50;8.10;98.30
8707;DHT22;4390;49.302;9.306;2023-04-01T12:09:10;8.20;98.30
8707;DHT22;4390;49.302;9.306;2023-04-01T12:17:51;8.50;98.30
8707;DHT22;4390;49.302;9.306;2023-04-01T12:20:50;8.50;98.30
8707;DHT22;4390;49.302;9.306;2023-04-01T12:26:18;8.40;98.30
8707;DHT22;4390;49.302;9.306;2023-04-01T12:37:17;8.70;98.30
8707;DHT22;4390;49.302;9.306;2023-04-01T12:42:59;8.70;98.30
8707;DHT22;4390;49.302;9.306;2023-04-01T12:45:35;8.80;98.30
8707;DHT22;4390;49.302;9.306;2023-04-01T12:51:23;8.40;98.30
8707;DHT22;4390;49.302;9.306;2023-04-01T12:59:38;8.20;98.30
8707;DHT22;4390;49.302;9.306;2023-04-01T13:10:50;8.00;98.30
8707;DHT22;4390;49.302;9.306;2023-04-01T13:13:49;8.30;98.30
8707;DHT22;4390;49.302;9.306;2023-04-01T13:16:38;8.60;98.30
8707;DHT22;4390;49.302;9.306;2023-04-01T13:19:13;8.90;98.30
8707;DHT22;4390;49.302;9.306;2023-04-01T13:24:41;8.90;98.30
8707;DHT22;4390;49.302;9.306;2023-04-01T13:29:59;8.60;98.30
8707;DHT22;4390;49.302;9.306;2023-04-01T13:33:21;8.60;98.30
8707;DHT22;4390;49.302;9.306;2023-04-01T13:41:35;8.60;98.30
8707;DHT22;4390;49.302;9.306;2023-04-01T13:44:16;8.40;98.30
8707;DHT22;4390;49.302;9.306;2023-04-01T13:55:29;8.30;98.30
8707;DHT22;4390;49.302;9.306;2023-04-01T14:01:15;8.20;98.30
8707;DHT22;4390;49.302;9.306;2023-04-01T14:12:38;8.20;98.30
8707;DHT22;4390;49.302;9.306;2023-04-01T14:21:17;8.50;98.30
8707;DHT22;4390;49.302;9.306;2023-04-01T14:35:12;8.30;98.30
8707;DHT22;4390;49.302;9.306;2023-04-01T14:38:06;8.20;98.30
8707;DHT22;4390;49.302;9.306;2023-04-01T14:43:48;8.00;98.30
8707;DHT22;4390;49.302;9.306;2023-04-01T14:46:52;8.10;98.30
8707;DHT22;4390;49.302;9.306;2023-04-01T14:49:32;8.10;98.30
8707;DHT22;4390;49.302;9.306;2023-04-01T14:52:09;8.10;98.30
8707;DHT22;4390;49.302;9.306;2023-04-01T14:54:39;8.00;98.30
8707;DHT22;4390;49.302;9.306;2023-04-01T15:00:00;8.10;98.30
8707;DHT22;4390;49.302;9.306;2023-04-01T15:02:50;8.20;98.30
8707;DHT22;4390;49.302;9.306;2023-04-01T15:08:34;8.40;98.30
8707;DHT22;4390;49.302;9.306;2023-04-01T15:20:04;8.50;98.30
8707;DHT22;4390;49.302;9.306;2023-04-01T15:25:31;8.80;98.30
8707;DHT22;4390;49.302;9.306;2023-04-01T15:30:58;8.40;98.30
8707;DHT22;4390;49.302;9.306;2023-04-01T15:33:38;8.30;98.30
8707;DHT22;4390;49.302;9.306;2023-04-01T15:44:37;8.40;98.30
8707;DHT22;4390;49.302;9.306;2023-04-01T15:47:32;8.50;98.30
8707;DHT22;4390;49.302;9.306;2023-04-01T15:50:28;8.50;98.30
8707;DHT22;4390;49.302;9.306;2023-04-01T15:53:37;8.30;98.30
8707;DHT22;4390;49.302;9.306;2023-04-01T15:58:52;8.10;98.30
8707;DHT22;4390;49.302;9.306;2023-04-01T16:01:53;8.20;98.30
8707;DHT22;4390;49.302;9.306;2023-04-01T16:07:39;8.20;98.30
8707;DHT22;4390;49.302;9.306;2023-04-01T16:13:22;7.90;98.30
8707;DHT22;4390;49.302;9.306;2023-04-01T16:16:28;8.10;98.30
8707;DHT22;4390;49.302;9.306;2023-04-01T16:19:26;8.10;98.30
8707;DHT22;4390;49.302;9.306;2023-04-01T16:21:59;8.10;98.30
8707;DHT22;4390;49.302;9.306;2023-04-01T16:24:59;8.30;98.30
8707;DHT22;4390;49.302;9.306;2023-04-01T16:30:23;8.50;98.30
8707;DHT22;4390;49.302;9.306;2023-04-01T16:35:58;8.60;98.30
8707;DHT22;4390;49.302;9.306;2023-04-01T16:38:53;8.60;98.30
8707;DHT22;4390;49.302;9.306;2023-04-01T16:41:31;8.50;98.30
8707;DHT22;4390;49.302;9.306;2023-04-01T16:46:41;8.90;98.30
8707;DHT22;4390;49.302;9.306;2023-04-01T16:54:59;8.70;98.30
8707;DHT22;4390;49.302;9.306;2023-04-01T16:57:51;8.80;98.30
8707;DHT22;4390;49.302;9.306;2023-04-01T17:00:30;8.50;98.30
8707;DHT22;4390;49.302;9.306;2023-04-01T17:03:25;8.50;98.30
8707;DHT22;4390;49.302;9.306;2023-04-01T17:09:02;8.70;98.30
8707;DHT22;4390;49.302;9.306;2023-04-01T17:14:32;8.50;98.30
8707;DHT22;4390;49.302;9.306;2023-04-01T17:17:29;8.50;98.30
8707;DHT22;4390;49.302;9.306;2023-04-01T17:22:50;9.00;98.30
8707;DHT22;4390;49.302;9.306;2023-04-01T17:28:15;8.90;98.30
8707;DHT22;4390;49.302;9.306;2023-04-01T17:36:37;8.90;98.30
8707;DHT22;4390;49.302;9.306;2023-04-01T17:42:09;9.00;98.30
8707;DHT22;4390;49.302;9.306;2023-04-01T17:44:53;9.10;98.30
8707;DHT22;4390;49.302;9.306;2023-04-01T17:53:42;8.40;98.30
8707;DHT22;4390;49.302;9.306;2023-04-01T18:02:01;8.30;98.30
8707;DHT22;4390;49.302;9.306;2023-04-01T18:07:57;8.50;98.30
8707;DHT22;4390;49.302;9.306;2023-04-01T18:14:03;8.60;98.30
8707;DHT22;4390;49.302;9.306;2023-04-01T18:17:03;8.50;98.30
8707;DHT22;4390;49.302;9.306;2023-04-01T18:22:40;8.40;98.30
8707;DHT22;4390;49.302;9.306;2023-04-01T18:28:14;8.20;98.30
8707;DHT22;4390;49.302;9.306;2023-04-01T18:34:07;8.30;98.30
8707;DHT22;4390;49.302;9.306;2023-04-01T18:36:44;8.20;98.30
8707;DHT22;4390;49.302;9.306;2023-04-01T18:39:17;8.10;98.30
8707;DHT22;4390;49.302;9.306;2023-04-01T18:44:48;8.10;98.30
8707;DHT22;4390;49.302;9.306;2023-04-01T18:47:38;8.10;98.30
8707;DHT22;4390;49.302;9.306;2023-04-01T18:55:55;8.20;98.30
8707;DHT22;4390;49.302;9.306;2023-04-01T18:58:47;8.20;98.30
8707;DHT22;4390;49.302;9.306;2023-04-01T19:06:36;8.00;98.30
8707;DHT22;4390;49.302;9.306;2023-04-01T19:09:31;8.20;98.30
8707;DHT22;4390;49.302;9.306;2023-04-01T19:14:56;8.50;98.30
8707;DHT22;4390;49.302;9.306;2023-04-01T19:23:17;8.90;98.30
8707;DHT22;4390;49.302;9.306;2023-04-01T19:25:48;9.00;98.30
8707;DHT22;4390;49.302;9.306;2023-04-01T19:28:36;9.00;98.30
8707;DHT22;4390;49.302;9.306;2023-04-01T19:31:20;9.10;98.30
8707;DHT22;4390;49.302;9.306;2023-04-01T19:34:04;9.20;98.30
8707;DHT22;4390;49.302;9.306;2023-04-01T19:36:45;9.20;98.30
8707;DHT22;4390;49.302;9.306;2023-04-01T19:45:43;9.40;98.30
8707;DHT22;4390;49.302;9.306;2023-04-01T19:56:58;9.00;98.30
8707;DHT22;4390;49.302;9.306;2023-04-01T20:08:11;9.10;98.30
8707;DHT22;4390;49.302;9.306;2023-04-01T20:10:59;9.10;98.30
8707;DHT22;4390;49.302;9.306;2023-04-01T20:14:07;8.90;98.30
8707;DHT22;4390;49.302;9.306;2023-04-01T20:19:10;9.10;98.30
8707;DHT22;4390;49.302;9.306;2023-04-01T20:21:45;9.20;98.30
8707;DHT22;4390;49.302;9.306;2023-04-01T20:24:43;9.00;98.30
8707;DHT22;4390;49.302;9.306;2023-04-01T20:33:07;8.90;98.30
8707;DHT22;4390;49.302;9.306;2023-04-01T20:36:00;8.80;98.30
8707;DHT22;4390;49.302;9.306;2023-04-01T20:41:34;8.40;98.30
8707;DHT22;4390;49.302;9.306;2023-04-01T20:44:06;8.30;98.30
8707;DHT22;4390;49.302;9.306;2023-04-01T20:57:45;8.40;98.30
8707;DHT22;4390;49.302;9.306;2023-04-01T21:00:33;8.40;98.30
8707;DHT22;4390;49.302;9.306;2023-04-01T21:03:23;8.40;98.30
8707;DHT22;4390;49.302;9.306;2023-04-01T21:05:56;8.60;98.30
8707;DHT22;4390;49.302;9.306;2023-04-01T21:08:42;8.70;98.30
8707;DHT22;4390;49.302;9.306;2023-04-01T21:11:25;8.70;98.30
8707;DHT22;4390;49.302;9.306;2023-04-01T21:23:18;8.90;98.30
8707;DHT22;4390;49.302;9.306;2023-04-01T21:25:28;8.70;98.30
8707;DHT22;4390;49.302;9.306;2023-04-01T21:34:16;8.80;98.30
8707;DHT22;4390;49.302;9.306;2023-04-01T21:51:43;9.10;98.30
8707;DHT22;4390;49.302;9.306;2023-04-01T21:59:56;9.10;98.30
8707;DHT22;4390;49.302;9.306;2023-04-01T22:05:31;9.00;98.30
8707;DHT22;4390;49.302;9.306;2023-04-01T22:13:45;9.30;98.30
8707;DHT22;4390;49.302;9.306;2023-04-01T22:22:31;9.20;98.30
8707;DHT22;4390;49.302;9.306;2023-04-01T22:25:14;9.20;98.30
8707;DHT22;4390;49.302;9.306;2023-04-01T22:28:15;9.30;98.30
8707;DHT22;4390;49.302;9.306;2023-04-01T22:30:50;9.40;98.30
8707;DHT22;4390;49.302;9.306;2023-04-01T22:33:59;9.50;98.30
8707;DHT22;4390;49.302;9.306;2023-04-01T22:45:02;9.40;98.30
8707;DHT22;4390;49.302;9.306;2023-04-01T22:57:07;9.50;98.30
8707;DHT22;4390;49.302;9.306;2023-04-01T23:02:20;9.30;98.30
8707;DHT22;4390;49.302;9.306;2023-04-01T23:04:55;9.10;98.30
8707;DHT22;4390;49.302;9.306;2023-04-01T23:10:26;9.10;98.30
8707;DHT22;4390;49.302;9.306;2023-04-01T23:12:59;9.10;98.30
8707;DHT22;4390;49.302;9.306;2023-04-01T23:15:28;9.00;98.30
8707;DHT22;4390;49.302;9.306;2023-04-01T23:24:21;8.60;98.30
8707;DHT22;4390;49.302;9.306;2023-04-01T23:27:16;8.60;98.30
8707;DHT22;4390;49.302;9.306;2023-04-01T23:29:45;8.70;98.30
8707;DHT22;4390;49.302;9.306;2023-04-01T23:32:19;8.50;98.30
8707;DHT22;4390;49.302;9.306;2023-04-01T23:34:53;8.60;98.30
8707;DHT22;4390;49.302;9.306;2023-04-01T23:37:30;8.80;98.30
8707;DHT22;4390;49.302;9.306;2023-04-01T23:39:58;8.80;98.30
8707;DHT22;4390;49.302;9.306;2023-04-01T23:42:33;8.80;98.30
8707;DHT22;4390;49.302;9.306;2023-04-01T23:45:13;8.80;98.30
8707;DHT22;4390;49.302;9.306;2023-04-01T23:47:40;8.90;98.30
8707;DHT22;4390;49.302;9.306;2023-04-01T23:50:13;8.80;98.30
8707;DHT22;4390;49.302;9.306;2023-04-01T23:52:52;8.50;98.30
8707;DHT22;4390;49.302;9.306;2023-04-01T23:55:23;8.20;98.30
8707;DHT22;4390;49.302;9.306;2023-04-01T23:58:13;8.40;98.30
